Time;durP1;ratioP1;P1;durP2;ratioP2;P2;SDS_P1;SDS_P2;PMS_P1;PMS_P2;Temp;Humidity;BMP_temperature;BMP_pressure;BME280_temperature;BME280_humidity;BME280_pressure;Samples;Min_cycle;Max_cycle;Signal;HPM_P1;HPM_P2
2022/03/24 04:42:54;;;;;;;55.60;22.00;;;;;;;1.69;62.17;101664.28;741320;1154;23202;-73
2022/03/24 04:57:56;;;;;;;52.33;23.73;;;;;;;1.63;61.60;101664.45;739040;1153;115052;-72
2022/03/24 05:12:58;;;;;;;161.80;41.03;;;;;;;1.74;62.14;101667.59;739546;1155;114386;-73
2022/03/24 05:28:00;;;;;;;62.10;24.03;;;;;;;1.70;62.81;101671.13;739930;1155;115221;-74
2022/03/24 05:43:03;;;;;;;69.05;27.18;;;;;;;1.72;64.92;101674.53;739679;1155;113966;-91
2022/03/24 05:58:05;;;;;;;74.10;27.53;;;;;;;1.94;66.29;101681.66;739211;1155;115163;-71
2022/03/24 06:13:08;;;;;;;65.10;26.40;;;;;;;2.28;67.16;101683.23;740103;1155;115243;-72
2022/03/24 06:28:10;;;;;;;66.50;28.73;;;;;;;2.46;67.31;101672.30;738946;1155;114104;-72
2022/03/24 06:43:13;;;;;;;62.73;26.75;;;;;;;3.23;68.59;101679.24;739412;1154;114134;-84
2022/03/24 06:58:15;;;;;;;91.47;38.28;;;;;;;4.38;69.01;101683.66;739603;1154;115264;-75
2022/03/24 07:13:17;;;;;;;66.05;29.75;;;;;;;5.73;68.71;101684.03;739682;1154;115469;-75
2022/03/24 07:28:19;;;;;;;52.48;25.38;;;;;;;7.15;67.16;101681.59;738822;1155;115420;-75
2022/03/24 07:43:21;;;;;;;79.80;30.68;;;;;;;8.68;66.46;101675.94;739717;1155;114022;-74
2022/03/24 07:58:25;;;;;;;53.43;27.43;;;;;;;10.32;62.27;101682.53;739821;1154;114984;-74
2022/03/24 08:13:27;;;;;;;29.73;15.27;;;;;;;11.95;58.90;101675.05;739593;1155;115178;-76
2022/03/24 08:28:29;;;;;;;111.93;39.23;;;;;;;12.06;52.84;101666.41;739741;1155;115818;-71
2022/03/24 08:43:32;;;;;;;28.48;14.13;;;;;;;12.72;47.40;101662.47;739847;1155;114878;-74
2022/03/24 08:58:40;;;;;;;45.58;24.53;;;;;;;13.97;45.24;101655.44;740005;1155;114340;-74
2022/03/24 09:13:44;;;;;;;22.03;10.60;;;;;;;14.75;43.91;101655.25;740124;1155;115266;-75
2022/03/24 09:28:51;;;;;;;20.60;13.63;;;;;;;16.02;42.45;101642.55;739923;1154;115133;-70
2022/03/24 09:43:54;;;;;;;16.63;9.23;;;;;;;16.94;41.90;101646.50;740234;1155;115147;-77
2022/03/24 09:58:56;;;;;;;19.83;10.28;;;;;;;17.04;41.14;101646.48;740709;1154;115526;-77
2022/03/24 10:13:59;;;;;;;22.48;10.13;;;;;;;17.76;41.29;101643.20;741510;1155;115338;-75
2022/03/24 10:29:05;;;;;;;21.68;10.35;;;;;;;17.45;39.77;101644.36;740529;1155;115764;-74
2022/03/24 10:44:11;;;;;;;19.38;9.90;;;;;;;18.65;39.95;101638.88;739257;1155;115370;-74
2022/03/24 10:59:13;;;;;;;13.73;8.60;;;;;;;19.19;38.86;101621.91;739708;1155;115744;-75
2022/03/24 11:14:16;;;;;;;19.05;10.90;;;;;;;19.98;38.33;101611.86;740069;1155;114697;-75
2022/03/24 11:29:19;;;;;;;21.05;7.73;;;;;;;20.52;38.22;101591.84;739594;1154;115062;-75
2022/03/24 11:44:48;;;;;;;16.15;7.25;;;;;;;21.06;36.90;101589.41;740351;1155;114819;-74
2022/03/24 12:00:13;;;;;;;19.93;9.27;;;;;;;20.79;36.58;101587.98;739940;1154;114752;-74
2022/03/24 12:15:24;;;;;;;16.30;8.98;;;;;;;21.18;36.03;101583.66;739983;1155;114877;-74
2022/03/24 12:30:27;;;;;;;24.40;11.85;;;;;;;20.92;36.36;101569.60;740141;1155;115027;-73
2022/03/24 12:45:32;;;;;;;16.35;9.05;;;;;;;21.88;36.04;101556.07;739525;1155;115540;-73
2022/03/24 13:00:54;;;;;;;20.30;11.18;;;;;;;21.93;35.66;101552.84;739541;1155;115399;-74
2022/03/24 13:15:57;;;;;;;18.73;10.40;;;;;;;21.91;35.52;101531.66;739396;1155;115191;-74
2022/03/24 13:31:00;;;;;;;18.28;7.90;;;;;;;22.94;35.24;101523.09;739851;1155;115157;-74
2022/03/24 13:46:03;;;;;;;13.65;7.25;;;;;;;23.25;35.02;101516.66;739817;1155;114739;-70
2022/03/24 14:01:08;;;;;;;23.73;7.60;;;;;;;31.20;32.15;101495.27;739967;1155;114894;-77
2022/03/24 14:16:28;;;;;;;11.05;5.08;;;;;;;34.62;28.96;101490.37;740056;1155;115885;-75
2022/03/24 14:31:31;;;;;;;11.80;5.10;;;;;;;37.65;28.19;101488.80;740078;1155;114603;-76
2022/03/24 14:46:35;;;;;;;21.88;6.38;;;;;;;31.88;28.50;101466.52;740405;1155;115414;-77
2022/03/24 15:01:38;;;;;;;16.63;7.15;;;;;;;27.51;30.37;101450.64;740669;1154;115219;-79
2022/03/24 15:16:41;;;;;;;16.75;8.48;;;;;;;27.72;31.01;101447.53;740367;1155;114120;-77
2022/03/24 15:31:46;;;;;;;54.60;26.40;;;;;;;31.92;29.12;101459.52;740185;1154;114462;-77
2022/03/24 15:46:50;;;;;;;43.50;19.27;;;;;;;25.06;30.59;101450.86;739913;1155;114308;-78
2022/03/24 16:01:52;;;;;;;27.33;14.75;;;;;;;23.69;31.56;101456.73;739817;1155;115630;-74
2022/03/24 16:16:56;;;;;;;39.73;16.40;;;;;;;25.68;30.56;101453.41;739460;1155;115994;-74
2022/03/24 16:32:00;;;;;;;40.03;17.80;;;;;;;20.58;32.63;101449.91;741051;1155;115605;-74
2022/03/24 16:47:12;;;;;;;72.93;32.05;;;;;;;18.13;34.14;101459.91;740775;1155;115869;-72
2022/03/24 17:02:16;;;;;;;55.98;24.18;;;;;;;16.78;35.58;101466.06;740322;1155;114801;-73
2022/03/24 17:17:19;;;;;;;329.37;134.03;;;;;;;15.92;36.47;101480.28;739411;1155;116032;-85
2022/03/24 17:32:21;;;;;;;258.50;117.03;;;;;;;14.95;37.92;101482.67;739784;1154;115002;-79
2022/03/24 17:47:24;;;;;;;144.95;64.13;;;;;;;14.04;39.01;101498.33;739549;1154;115404;-81
2022/03/24 18:02:27;;;;;;;140.33;58.15;;;;;;;13.15;39.95;101488.77;739690;1155;114535;-78
2022/03/24 18:17:30;;;;;;;175.55;71.25;;;;;;;12.59;40.67;101488.80;740014;1155;115250;-75
2022/03/24 18:32:34;;;;;;;137.05;52.70;;;;;;;12.02;41.29;101507.13;739784;1155;114480;-70
2022/03/24 18:47:36;;;;;;;84.60;31.93;;;;;;;11.45;41.68;101508.65;739882;1155;115547;-76
2022/03/24 19:02:39;;;;;;;166.85;50.58;;;;;;;10.90;42.70;101500.28;740525;1155;115271;-69
2022/03/24 19:17:42;;;;;;;218.48;70.23;;;;;;;10.57;43.43;101501.68;740313;1155;114851;-76
2022/03/24 19:32:48;;;;;;;86.37;33.57;;;;;;;9.99;43.94;101509.91;740716;1155;115027;-76
2022/03/24 19:47:50;;;;;;;119.48;40.75;;;;;;;9.55;45.35;101505.77;739871;1155;115526;-75
2022/03/24 20:02:58;;;;;;;84.00;27.55;;;;;;;9.14;44.43;101510.90;739622;1155;115190;-74
2022/03/24 20:18:00;;;;;;;62.93;25.30;;;;;;;8.74;45.56;101497.67;740994;1155;114544;-74
2022/03/24 20:33:07;;;;;;;92.93;32.50;;;;;;;8.39;46.17;101500.59;740716;1153;113919;-75
2022/03/24 20:48:10;;;;;;;61.98;22.60;;;;;;;7.94;47.11;101508.43;740798;1155;114851;-75
2022/03/24 21:03:12;;;;;;;90.13;30.68;;;;;;;7.70;47.52;101504.63;739219;1155;114492;-76
2022/03/24 21:18:15;;;;;;;34.97;16.23;;;;;;;7.52;47.73;101501.27;739490;1155;113968;-75
2022/03/24 21:33:18;;;;;;;50.05;20.15;;;;;;;7.12;48.18;101499.91;739271;1154;114708;-75
2022/03/24 21:48:21;;;;;;;93.63;34.55;;;;;;;6.81;48.90;101500.73;739352;1154;114798;-74
2022/03/24 22:03:25;;;;;;;197.30;63.30;;;;;;;6.61;49.44;101491.33;739245;1154;113935;-75
2022/03/24 22:18:28;;;;;;;147.63;51.13;;;;;;;6.42;50.00;101483.63;739531;1155;114903;-75
2022/03/24 22:33:33;;;;;;;135.05;50.20;;;;;;;6.13;50.02;101486.78;739690;1155;115273;-74
2022/03/24 22:48:37;;;;;;;144.28;51.23;;;;;;;5.83;51.03;101482.16;740040;1155;114918;-77
2022/03/24 23:03:42;;;;;;;112.23;43.93;;;;;;;5.49;51.08;101478.58;739815;1155;115158;-74
2022/03/24 23:18:44;;;;;;;101.63;40.23;;;;;;;5.34;52.40;101468.89;739142;1154;114990;-75
2022/03/24 23:33:47;;;;;;;244.93;66.90;;;;;;;5.07;52.25;101482.28;738769;1155;114880;-75
2022/03/24 23:48:49;;;;;;;194.90;56.80;;;;;;;4.91;52.99;101483.87;739036;1155;115111;-75
